sensor_id;sensor_type;location;lat;lon;timestamp;pressure;altitude;pressure_sealevel;temperature;humidity
72892;BME280;61032;50.782;6.818;2023-04-27T00:00:37;100822.50;;;9.20;56.92
72892;BME280;61032;50.782;6.818;2023-04-27T00:01:37;100829.31;;;9.22;56.50
72892;BME280;61032;50.782;6.818;2023-04-27T00:02:38;100819.84;;;9.28;55.97
72892;BME280;61032;50.782;6.818;2023-04-27T00:03:38;100822.88;;;9.27;56.25
72892;BME280;61032;50.782;6.818;2023-04-27T00:04:39;100827.38;;;9.23;56.77
72892;BME280;61032;50.782;6.818;2023-04-27T00:05:40;100831.88;;;9.19;57.32
72892;BME280;61032;50.782;6.818;2023-04-27T00:06:41;100832.38;;;9.21;58.10
72892;BME280;61032;50.782;6.818;2023-04-27T00:07:42;100838.31;;;9.14;58.27
72892;BME280;61032;50.782;6.818;2023-04-27T00:08:42;100838.44;;;9.09;58.31
72892;BME280;61032;50.782;6.818;2023-04-27T00:09:42;100837.63;;;9.09;58.15
72892;BME280;61032;50.782;6.818;2023-04-27T00:10:43;100838.22;;;9.06;58.32
72892;BME280;61032;50.782;6.818;2023-04-27T00:11:43;100839.53;;;9.08;58.33
72892;BME280;61032;50.782;6.818;2023-04-27T00:12:44;100838.63;;;9.13;57.77
72892;BME280;61032;50.782;6.818;2023-04-27T00:13:44;100828.50;;;9.00;58.14
72892;BME280;61032;50.782;6.818;2023-04-27T00:14:44;100832.38;;;8.99;57.66
72892;BME280;61032;50.782;6.818;2023-04-27T00:15:45;100834.78;;;9.00;58.02
72892;BME280;61032;50.782;6.818;2023-04-27T00:16:46;100843.94;;;8.95;58.07
72892;BME280;61032;50.782;6.818;2023-04-27T00:17:46;100833.13;;;8.90;58.17
72892;BME280;61032;50.782;6.818;2023-04-27T00:18:47;100834.28;;;8.98;57.81
72892;BME280;61032;50.782;6.818;2023-04-27T00:19:47;100835.88;;;8.90;58.04
72892;BME280;61032;50.782;6.818;2023-04-27T00:20:48;100832.94;;;8.87;58.04
72892;BME280;61032;50.782;6.818;2023-04-27T00:21:48;100838.84;;;8.80;57.88
72892;BME280;61032;50.782;6.818;2023-04-27T00:22:48;100839.34;;;8.82;57.79
72892;BME280;61032;50.782;6.818;2023-04-27T00:23:49;100841.97;;;8.87;57.13
72892;BME280;61032;50.782;6.818;2023-04-27T00:24:49;100841.78;;;8.84;56.51
72892;BME280;61032;50.782;6.818;2023-04-27T00:25:50;100849.06;;;8.88;56.73
72892;BME280;61032;50.782;6.818;2023-04-27T00:26:50;100841.88;;;8.79;57.38
72892;BME280;61032;50.782;6.818;2023-04-27T00:27:50;100844.00;;;8.82;57.14
72892;BME280;61032;50.782;6.818;2023-04-27T00:28:51;100850.91;;;8.79;57.24
72892;BME280;61032;50.782;6.818;2023-04-27T00:29:51;100837.41;;;8.83;57.18
72892;BME280;61032;50.782;6.818;2023-04-27T00:30:52;100836.91;;;8.81;57.06
72892;BME280;61032;50.782;6.818;2023-04-27T00:31:53;100844.22;;;8.85;56.94
72892;BME280;61032;50.782;6.818;2023-04-27T00:32:54;100838.63;;;8.90;57.32
72892;BME280;61032;50.782;6.818;2023-04-27T00:33:54;100840.28;;;9.00;56.87
72892;BME280;61032;50.782;6.818;2023-04-27T00:34:54;100847.47;;;9.10;56.75
72892;BME280;61032;50.782;6.818;2023-04-27T00:35:59;100835.19;;;9.07;56.23
72892;BME280;61032;50.782;6.818;2023-04-27T00:37:00;100837.94;;;9.07;56.67
72892;BME280;61032;50.782;6.818;2023-04-27T00:38:00;100841.09;;;9.01;57.13
72892;BME280;61032;50.782;6.818;2023-04-27T00:39:02;100839.13;;;8.92;57.39
72892;BME280;61032;50.782;6.818;2023-04-27T00:40:04;100847.97;;;8.89;57.18
72892;BME280;61032;50.782;6.818;2023-04-27T00:41:07;100838.72;;;8.85;57.62
72892;BME280;61032;50.782;6.818;2023-04-27T00:42:07;100842.78;;;8.88;57.39
72892;BME280;61032;50.782;6.818;2023-04-27T00:43:12;100841.47;;;8.85;58.01
72892;BME280;61032;50.782;6.818;2023-04-27T00:44:12;100837.72;;;8.81;58.17
72892;BME280;61032;50.782;6.818;2023-04-27T00:45:12;100839.34;;;8.82;58.42
72892;BME280;61032;50.782;6.818;2023-04-27T00:46:13;100838.78;;;8.72;58.82
72892;BME280;61032;50.782;6.818;2023-04-27T00:47:14;100841.44;;;8.63;59.96
72892;BME280;61032;50.782;6.818;2023-04-27T00:48:16;100839.00;;;8.61;60.34
72892;BME280;61032;50.782;6.818;2023-04-27T00:49:16;100830.47;;;8.63;60.24
72892;BME280;61032;50.782;6.818;2023-04-27T00:50:21;100836.56;;;8.60;60.69
72892;BME280;61032;50.782;6.818;2023-04-27T00:51:24;100833.41;;;8.53;60.91
72892;BME280;61032;50.782;6.818;2023-04-27T00:52:29;100835.34;;;8.52;60.95
72892;BME280;61032;50.782;6.818;2023-04-27T00:53:30;100831.84;;;8.52;61.63
72892;BME280;61032;50.782;6.818;2023-04-27T00:54:31;100836.50;;;8.51;62.08
72892;BME280;61032;50.782;6.818;2023-04-27T00:55:31;100839.25;;;8.51;62.14
72892;BME280;61032;50.782;6.818;2023-04-27T00:56:31;100837.78;;;8.54;62.48
72892;BME280;61032;50.782;6.818;2023-04-27T00:57:32;100835.03;;;8.54;61.99
72892;BME280;61032;50.782;6.818;2023-04-27T00:58:32;100840.34;;;8.50;61.92
72892;BME280;61032;50.782;6.818;2023-04-27T00:59:33;100836.09;;;8.44;62.34
72892;BME280;61032;50.782;6.818;2023-04-27T01:00:37;100836.72;;;8.41;62.40
72892;BME280;61032;50.782;6.818;2023-04-27T01:01:39;100833.97;;;8.41;62.13
72892;BME280;61032;50.782;6.818;2023-04-27T01:02:40;100843.09;;;8.37;61.52
72892;BME280;61032;50.782;6.818;2023-04-27T01:03:40;100845.53;;;8.38;61.94
72892;BME280;61032;50.782;6.818;2023-04-27T01:04:40;100840.06;;;8.38;61.82
72892;BME280;61032;50.782;6.818;2023-04-27T01:05:41;100837.53;;;8.42;61.88
72892;BME280;61032;50.782;6.818;2023-04-27T01:06:41;100828.69;;;8.45;61.87
72892;BME280;61032;50.782;6.818;2023-04-27T01:07:41;100836.16;;;8.53;60.96
72892;BME280;61032;50.782;6.818;2023-04-27T01:08:42;100843.78;;;8.56;61.22
72892;BME280;61032;50.782;6.818;2023-04-27T01:09:42;100838.69;;;8.63;60.94
72892;BME280;61032;50.782;6.818;2023-04-27T01:10:42;100837.38;;;8.60;61.03
72892;BME280;61032;50.782;6.818;2023-04-27T01:11:43;100837.69;;;8.59;61.11
72892;BME280;61032;50.782;6.818;2023-04-27T01:12:43;100839.31;;;8.60;60.85
72892;BME280;61032;50.782;6.818;2023-04-27T01:13:43;100841.03;;;8.56;61.16
72892;BME280;61032;50.782;6.818;2023-04-27T01:14:44;100840.41;;;8.59;61.16
72892;BME280;61032;50.782;6.818;2023-04-27T01:15:44;100844.88;;;8.55;61.61
72892;BME280;61032;50.782;6.818;2023-04-27T01:16:44;100837.78;;;8.54;61.28
72892;BME280;61032;50.782;6.818;2023-04-27T01:17:45;100837.78;;;8.54;61.43
72892;BME280;61032;50.782;6.818;2023-04-27T01:18:46;100839.91;;;8.57;61.35
72892;BME280;61032;50.782;6.818;2023-04-27T01:19:46;100838.44;;;8.51;61.72
72892;BME280;61032;50.782;6.818;2023-04-27T01:20:47;100839.03;;;8.48;61.91
72892;BME280;61032;50.782;6.818;2023-04-27T01:21:47;100842.91;;;8.47;62.51
72892;BME280;61032;50.782;6.818;2023-04-27T01:22:48;100838.75;;;8.49;62.35
72892;BME280;61032;50.782;6.818;2023-04-27T01:23:48;100842.28;;;8.50;62.31
72892;BME280;61032;50.782;6.818;2023-04-27T01:24:48;100837.13;;;8.48;62.37
72892;BME280;61032;50.782;6.818;2023-04-27T01:25:48;100845.19;;;8.53;62.57
72892;BME280;61032;50.782;6.818;2023-04-27T01:26:49;100848.66;;;8.59;62.14
72892;BME280;61032;50.782;6.818;2023-04-27T01:27:51;100849.16;;;8.61;62.05
72892;BME280;61032;50.782;6.818;2023-04-27T01:28:52;100852.59;;;8.67;61.85
72892;BME280;61032;50.782;6.818;2023-04-27T01:29:53;100847.69;;;8.77;61.41
72892;BME280;61032;50.782;6.818;2023-04-27T01:30:53;100843.16;;;8.73;61.50
72892;BME280;61032;50.782;6.818;2023-04-27T01:31:53;100840.00;;;8.66;61.61
72892;BME280;61032;50.782;6.818;2023-04-27T01:32:53;100849.16;;;8.61;61.53
72892;BME280;61032;50.782;6.818;2023-04-27T01:33:54;100851.38;;;8.59;62.18
72892;BME280;61032;50.782;6.818;2023-04-27T01:34:54;100846.97;;;8.49;62.86
72892;BME280;61032;50.782;6.818;2023-04-27T01:35:55;100845.53;;;8.52;62.94
72892;BME280;61032;50.782;6.818;2023-04-27T01:36:55;100844.72;;;8.51;63.25
72892;BME280;61032;50.782;6.818;2023-04-27T01:37:55;100849.81;;;8.44;63.92
72892;BME280;61032;50.782;6.818;2023-04-27T01:38:56;100840.88;;;8.39;63.87
72892;BME280;61032;50.782;6.818;2023-04-27T01:39:57;100842.69;;;8.43;63.60
72892;BME280;61032;50.782;6.818;2023-04-27T01:40:57;100844.13;;;8.41;63.65
72892;BME280;61032;50.782;6.818;2023-04-27T01:42:02;100841.88;;;8.43;63.80
72892;BME280;61032;50.782;6.818;2023-04-27T01:43:02;100838.44;;;8.37;63.91
72892;BME280;61032;50.782;6.818;2023-04-27T01:44:03;100830.94;;;8.43;63.72
72892;BME280;61032;50.782;6.818;2023-04-27T01:45:04;100837.41;;;8.47;63.69
72892;BME280;61032;50.782;6.818;2023-04-27T01:46:12;100838.84;;;8.44;63.95
72892;BME280;61032;50.782;6.818;2023-04-27T01:47:14;100837.22;;;8.43;64.27
72892;BME280;61032;50.782;6.818;2023-04-27T01:48:15;100836.09;;;8.44;64.03
72892;BME280;61032;50.782;6.818;2023-04-27T01:49:16;100839.03;;;8.48;63.85
72892;BME280;61032;50.782;6.818;2023-04-27T01:50:16;100835.69;;;8.51;63.46
72892;BME280;61032;50.782;6.818;2023-04-27T01:51:16;100839.25;;;8.51;63.35
72892;BME280;61032;50.782;6.818;2023-04-27T01:52:17;100847.47;;;8.51;63.83
72892;BME280;61032;50.782;6.818;2023-04-27T01:53:17;100845.22;;;8.40;63.90
72892;BME280;61032;50.782;6.818;2023-04-27T01:54:17;100843.91;;;8.37;64.17
72892;BME280;61032;50.782;6.818;2023-04-27T01:55:17;100845.63;;;8.33;65.03
72892;BME280;61032;50.782;6.818;2023-04-27T01:56:18;100844.31;;;8.31;65.06
72892;BME280;61032;50.782;6.818;2023-04-27T01:57:18;100853.66;;;8.30;64.76
72892;BME280;61032;50.782;6.818;2023-04-27T01:58:18;100848.59;;;8.37;64.23
72892;BME280;61032;50.782;6.818;2023-04-27T01:59:19;100845.53;;;8.38;64.26
72892;BME280;61032;50.782;6.818;2023-04-27T02:00:19;100848.88;;;8.35;64.43
72892;BME280;61032;50.782;6.818;2023-04-27T02:01:20;100844.94;;;8.27;64.66
72892;BME280;61032;50.782;6.818;2023-04-27T02:02:20;100840.56;;;8.26;64.52
72892;BME280;61032;50.782;6.818;2023-04-27T02:03:20;100839.84;;;8.21;65.20
72892;BME280;61032;50.782;6.818;2023-04-27T02:04:21;100839.03;;;8.20;64.63
72892;BME280;61032;50.782;6.818;2023-04-27T02:05:22;100837.41;;;8.19;64.51
72892;BME280;61032;50.782;6.818;2023-04-27T02:06:23;100840.47;;;8.18;64.45
72892;BME280;61032;50.782;6.818;2023-04-27T02:07:23;100832.66;;;8.11;65.09
72892;BME280;61032;50.782;6.818;2023-04-27T02:08:23;100838.25;;;8.06;65.09
72892;BME280;61032;50.782;6.818;2023-04-27T02:09:24;100830.94;;;8.02;65.17
72892;BME280;61032;50.782;6.818;2023-04-27T02:10:24;100842.72;;;8.02;64.94
72892;BME280;61032;50.782;6.818;2023-04-27T02:11:24;100832.97;;;7.96;65.31
72892;BME280;61032;50.782;6.818;2023-04-27T02:12:25;100837.84;;;7.99;65.01
72892;BME280;61032;50.782;6.818;2023-04-27T02:13:26;100847.97;;;7.99;64.83
72892;BME280;61032;50.782;6.818;2023-04-27T02:14:26;100844.53;;;7.93;65.20
72892;BME280;61032;50.782;6.818;2023-04-27T02:15:26;100845.75;;;7.87;65.45
72892;BME280;61032;50.782;6.818;2023-04-27T02:16:27;100848.28;;;7.83;65.21
72892;BME280;61032;50.782;6.818;2023-04-27T02:17:27;100846.75;;;7.77;65.66
72892;BME280;61032;50.782;6.818;2023-04-27T02:18:28;100843.28;;;7.72;65.80
72892;BME280;61032;50.782;6.818;2023-04-27T02:19:28;100847.13;;;7.71;66.25
72892;BME280;61032;50.782;6.818;2023-04-27T02:20:30;100849.28;;;7.74;66.12
72892;BME280;61032;50.782;6.818;2023-04-27T02:21:30;100839.88;;;7.80;65.50
72892;BME280;61032;50.782;6.818;2023-04-27T02:22:30;100839.88;;;7.80;65.40
72892;BME280;61032;50.782;6.818;2023-04-27T02:23:31;100846.75;;;7.64;65.80
72892;BME280;61032;50.782;6.818;2023-04-27T02:24:31;100847.13;;;7.57;66.41
72892;BME280;61032;50.782;6.818;2023-04-27T02:25:31;100850.59;;;7.63;66.13
72892;BME280;61032;50.782;6.818;2023-04-27T02:26:32;100840.47;;;7.63;66.13
72892;BME280;61032;50.782;6.818;2023-04-27T02:27:32;100843.72;;;7.65;65.58
72892;BME280;61032;50.782;6.818;2023-04-27T02:28:32;100842.91;;;7.65;66.00
72892;BME280;61032;50.782;6.818;2023-04-27T02:29:32;100841.47;;;7.67;66.12
72892;BME280;61032;50.782;6.818;2023-04-27T02:30:33;100856.88;;;7.63;65.98
72892;BME280;61032;50.782;6.818;2023-04-27T02:31:33;100848.75;;;7.58;66.28
72892;BME280;61032;50.782;6.818;2023-04-27T02:32:33;100845.13;;;7.63;65.67
72892;BME280;61032;50.782;6.818;2023-04-27T02:33:34;100838.75;;;7.67;65.84
72892;BME280;61032;50.782;6.818;2023-04-27T02:34:34;100844.53;;;7.66;65.83
72892;BME280;61032;50.782;6.818;2023-04-27T02:35:35;100840.38;;;7.68;65.13
72892;BME280;61032;50.782;6.818;2023-04-27T02:36:35;100848.75;;;7.72;65.63
72892;BME280;61032;50.782;6.818;2023-04-27T02:37:35;100841.06;;;7.74;65.39
72892;BME280;61032;50.782;6.818;2023-04-27T02:38:36;100844.94;;;7.86;64.64
72892;BME280;61032;50.782;6.818;2023-04-27T02:39:36;100842.00;;;7.97;64.84
72892;BME280;61032;50.782;6.818;2023-04-27T02:40:36;100849.31;;;8.01;64.71
72892;BME280;61032;50.782;6.818;2023-04-27T02:41:36;100846.47;;;8.06;64.57
72892;BME280;61032;50.782;6.818;2023-04-27T02:42:37;100838.25;;;8.06;64.39
72892;BME280;61032;50.782;6.818;2023-04-27T02:43:37;100841.00;;;8.06;64.02
72892;BME280;61032;50.782;6.818;2023-04-27T02:44:38;100830.34;;;8.05;64.46
72892;BME280;61032;50.782;6.818;2023-04-27T02:45:38;100841.19;;;7.96;64.77
72892;BME280;61032;50.782;6.818;2023-04-27T02:46:38;100839.03;;;7.93;64.59
72892;BME280;61032;50.782;6.818;2023-04-27T02:47:39;100839.66;;;7.90;65.07
72892;BME280;61032;50.782;6.818;2023-04-27T02:48:39;100830.63;;;7.76;65.75
72892;BME280;61032;50.782;6.818;2023-04-27T02:49:39;100830.41;;;7.72;65.71
72892;BME280;61032;50.782;6.818;2023-04-27T02:50:41;100829.59;;;7.58;66.47
72892;BME280;61032;50.782;6.818;2023-04-27T02:51:41;100822.72;;;7.61;66.26
72892;BME280;61032;50.782;6.818;2023-04-27T02:52:41;100825.25;;;7.71;65.73
72892;BME280;61032;50.782;6.818;2023-04-27T02:53:42;100823.63;;;7.70;65.84
72892;BME280;61032;50.782;6.818;2023-04-27T02:54:42;100829.91;;;7.70;66.00
72892;BME280;61032;50.782;6.818;2023-04-27T02:55:46;100823.22;;;7.63;66.05
72892;BME280;61032;50.782;6.818;2023-04-27T02:56:47;100828.09;;;7.66;66.28
72892;BME280;61032;50.782;6.818;2023-04-27T02:57:47;100824.94;;;7.72;65.86
72892;BME280;61032;50.782;6.818;2023-04-27T02:58:47;100825.16;;;7.76;65.63
72892;BME280;61032;50.782;6.818;2023-04-27T02:59:48;100827.38;;;7.74;66.41
72892;BME280;61032;50.782;6.818;2023-04-27T03:00:53;100820.06;;;7.69;65.71
72892;BME280;61032;50.782;6.818;2023-04-27T03:01:53;100822.81;;;7.69;65.63
72892;BME280;61032;50.782;6.818;2023-04-27T03:02:54;100817.53;;;7.73;65.56
72892;BME280;61032;50.782;6.818;2023-04-27T03:03:54;100818.97;;;7.70;65.32
72892;BME280;61032;50.782;6.818;2023-04-27T03:04:54;100821.53;;;7.67;65.22
72892;BME280;61032;50.782;6.818;2023-04-27T03:05:55;100824.13;;;7.72;65.21
72892;BME280;61032;50.782;6.818;2023-04-27T03:06:55;100812.88;;;7.73;65.12
72892;BME280;61032;50.782;6.818;2023-04-27T03:07:55;100818.16;;;7.70;64.66
72892;BME280;61032;50.782;6.818;2023-04-27T03:08:56;100820.28;;;7.59;65.02
72892;BME280;61032;50.782;6.818;2023-04-27T03:09:56;100828.28;;;7.55;65.10
72892;BME280;61032;50.782;6.818;2023-04-27T03:10:56;100818.06;;;7.47;64.58
72892;BME280;61032;50.782;6.818;2023-04-27T03:11:57;100827.06;;;7.48;65.32
72892;BME280;61032;50.782;6.818;2023-04-27T03:12:57;100823.19;;;7.49;65.00
72892;BME280;61032;50.782;6.818;2023-04-27T03:13:57;100826.66;;;7.54;64.54
72892;BME280;61032;50.782;6.818;2023-04-27T03:14:58;100818.56;;;7.63;63.94
72892;BME280;61032;50.782;6.818;2023-04-27T03:15:58;100825.25;;;7.71;63.89
72892;BME280;61032;50.782;6.818;2023-04-27T03:16:59;100829.00;;;7.75;63.22
72892;BME280;61032;50.782;6.818;2023-04-27T03:17:59;100824.94;;;7.72;63.53
72892;BME280;61032;50.782;6.818;2023-04-27T03:18:59;100832.97;;;7.82;62.43
72892;BME280;61032;50.782;6.818;2023-04-27T03:20:00;100832.56;;;7.75;62.34
72892;BME280;61032;50.782;6.818;2023-04-27T03:22:05;100835.50;;;7.79;61.54
72892;BME280;61032;50.782;6.818;2023-04-27T03:23:05;100837.03;;;7.85;61.50
72892;BME280;61032;50.782;6.818;2023-04-27T03:24:06;100839.88;;;7.80;60.78
72892;BME280;61032;50.782;6.818;2023-04-27T03:25:06;100834.28;;;7.85;60.76
72892;BME280;61032;50.782;6.818;2023-04-27T03:26:12;100842.22;;;7.86;61.06
72892;BME280;61032;50.782;6.818;2023-04-27T03:27:12;100841.09;;;8.01;60.92
72892;BME280;61032;50.782;6.818;2023-04-27T03:28:13;100842.63;;;8.07;60.42
72892;BME280;61032;50.782;6.818;2023-04-27T03:29:13;100841.47;;;7.94;60.50
72892;BME280;61032;50.782;6.818;2023-04-27T03:30:13;100839.34;;;7.91;60.83
72892;BME280;61032;50.782;6.818;2023-04-27T03:31:14;100841.69;;;7.84;60.55
72892;BME280;61032;50.782;6.818;2023-04-27T03:32:14;100823.44;;;7.80;60.72
72892;BME280;61032;50.782;6.818;2023-04-27T03:33:15;100834.59;;;7.83;61.14
72892;BME280;61032;50.782;6.818;2023-04-27T03:34:17;100832.38;;;7.85;60.61
72892;BME280;61032;50.782;6.818;2023-04-27T03:35:18;100836.81;;;7.81;60.83
72892;BME280;61032;50.782;6.818;2023-04-27T03:36:18;100832.56;;;7.75;61.25
72892;BME280;61032;50.782;6.818;2023-04-27T03:37:18;100836.19;;;7.71;61.26
72892;BME280;61032;50.782;6.818;2023-04-27T03:38:19;100832.34;;;7.72;61.04
72892;BME280;61032;50.782;6.818;2023-04-27T03:39:19;100826.47;;;7.65;61.05
72892;BME280;61032;50.782;6.818;2023-04-27T03:40:20;100830.25;;;7.69;61.17
72892;BME280;61032;50.782;6.818;2023-04-27T03:41:20;100829.09;;;7.70;60.55
72892;BME280;61032;50.782;6.818;2023-04-27T03:42:20;100828.72;;;7.76;60.30
72892;BME280;61032;50.782;6.818;2023-04-27T03:43:22;100831.66;;;7.80;59.94
72892;BME280;61032;50.782;6.818;2023-04-27T03:44:23;100834.09;;;7.68;59.96
72892;BME280;61032;50.782;6.818;2023-04-27T03:45:23;100830.53;;;7.67;60.30
72892;BME280;61032;50.782;6.818;2023-04-27T03:46:24;100839.22;;;7.69;60.32
72892;BME280;61032;50.782;6.818;2023-04-27T03:47:24;100839.34;;;7.64;60.57
72892;BME280;61032;50.782;6.818;2023-04-27T03:48:24;100839.03;;;7.66;60.34
72892;BME280;61032;50.782;6.818;2023-04-27T03:49:25;100835.88;;;7.58;60.44
72892;BME280;61032;50.782;6.818;2023-04-27T03:50:25;100841.66;;;7.57;60.49
72892;BME280;61032;50.782;6.818;2023-04-27T03:51:26;100838.84;;;7.62;60.72
72892;BME280;61032;50.782;6.818;2023-04-27T03:52:26;100837.00;;;7.57;59.67
72892;BME280;61032;50.782;6.818;2023-04-27T03:53:26;100841.66;;;7.57;59.99
72892;BME280;61032;50.782;6.818;2023-04-27T03:54:27;100834.78;;;7.59;60.23
72892;BME280;61032;50.782;6.818;2023-04-27T03:55:27;100833.56;;;7.66;59.80
72892;BME280;61032;50.782;6.818;2023-04-27T03:56:27;100840.03;;;7.70;59.72
72892;BME280;61032;50.782;6.818;2023-04-27T03:57:28;100845.50;;;7.70;59.88
72892;BME280;61032;50.782;6.818;2023-04-27T03:58:28;100836.81;;;7.68;59.99
72892;BME280;61032;50.782;6.818;2023-04-27T03:59:28;100838.31;;;7.60;59.78
72892;BME280;61032;50.782;6.818;2023-04-27T04:00:29;100839.94;;;7.61;59.97
72892;BME280;61032;50.782;6.818;2023-04-27T04:01:30;100835.59;;;7.60;60.41
72892;BME280;61032;50.782;6.818;2023-04-27T04:02:31;100845.50;;;7.70;59.88
72892;BME280;61032;50.782;6.818;2023-04-27T04:03:31;100847.66;;;7.73;59.73
72892;BME280;61032;50.782;6.818;2023-04-27T04:04:31;100848.75;;;7.72;59.51
72892;BME280;61032;50.782;6.818;2023-04-27T04:05:31;100843.19;;;7.63;59.59
72892;BME280;61032;50.782;6.818;2023-04-27T04:06:32;100852.81;;;7.61;59.53
72892;BME280;61032;50.782;6.818;2023-04-27T04:07:32;100854.00;;;7.54;59.45
72892;BME280;61032;50.782;6.818;2023-04-27T04:08:33;100851.88;;;7.51;60.22
72892;BME280;61032;50.782;6.818;2023-04-27T04:09:33;100856.22;;;7.52;59.46
72892;BME280;61032;50.782;6.818;2023-04-27T04:10:33;100855.41;;;7.52;59.24
72892;BME280;61032;50.782;6.818;2023-04-27T04:11:34;100855.41;;;7.52;59.49
72892;BME280;61032;50.782;6.818;2023-04-27T04:12:34;100854.09;;;7.49;59.44
72892;BME280;61032;50.782;6.818;2023-04-27T04:13:35;100850.97;;;7.42;59.71
72892;BME280;61032;50.782;6.818;2023-04-27T04:14:35;100853.69;;;7.42;59.46
72892;BME280;61032;50.782;6.818;2023-04-27T04:15:35;100853.41;;;7.44;59.53
72892;BME280;61032;50.782;6.818;2023-04-27T04:16:36;100856.44;;;7.42;59.09
72892;BME280;61032;50.782;6.818;2023-04-27T04:17:36;100852.16;;;7.36;59.17
72892;BME280;61032;50.782;6.818;2023-04-27T04:18:36;100857.09;;;7.34;59.44
72892;BME280;61032;50.782;6.818;2023-04-27T04:19:37;100856.00;;;7.35;59.76
72892;BME280;61032;50.782;6.818;2023-04-27T04:20:37;100859.63;;;7.31;59.84
72892;BME280;61032;50.782;6.818;2023-04-27T04:21:37;100865.81;;;7.36;59.66
72892;BME280;61032;50.782;6.818;2023-04-27T04:22:38;100866.56;;;7.42;59.01
72892;BME280;61032;50.782;6.818;2023-04-27T04:23:38;100869.00;;;7.43;58.86
72892;BME280;61032;50.782;6.818;2023-04-27T04:24:40;100874.47;;;7.43;58.97
72892;BME280;61032;50.782;6.818;2023-04-27T04:25:40;100869.88;;;7.39;59.40
72892;BME280;61032;50.782;6.818;2023-04-27T04:26:41;100877.94;;;7.30;59.59
72892;BME280;61032;50.782;6.818;2023-04-27T04:27:41;100882.56;;;7.16;60.25
72892;BME280;61032;50.782;6.818;2023-04-27T04:28:41;100875.69;;;7.18;60.51
72892;BME280;61032;50.782;6.818;2023-04-27T04:29:43;100877.91;;;7.16;60.19
72892;BME280;61032;50.782;6.818;2023-04-27T04:30:43;100882.63;;;7.11;60.52
72892;BME280;61032;50.782;6.818;2023-04-27T04:31:44;100882.34;;;7.12;61.02
72892;BME280;61032;50.782;6.818;2023-04-27T04:32:44;100881.25;;;7.13;60.85
72892;BME280;61032;50.782;6.818;2023-04-27T04:33:44;100877.16;;;7.11;60.62
72892;BME280;61032;50.782;6.818;2023-04-27T04:34:48;100875.44;;;7.01;60.84
72892;BME280;61032;50.782;6.818;2023-04-27T04:35:52;100882.41;;;7.07;61.18
72892;BME280;61032;50.782;6.818;2023-04-27T04:36:53;100879.84;;;7.16;60.63
72892;BME280;61032;50.782;6.818;2023-04-27T04:37:56;100885.88;;;7.13;60.90
72892;BME280;61032;50.782;6.818;2023-04-27T04:38:56;100883.44;;;7.11;61.04
72892;BME280;61032;50.782;6.818;2023-04-27T04:39:57;100887.88;;;7.07;61.68
72892;BME280;61032;50.782;6.818;2023-04-27T04:40:57;100879.50;;;7.04;61.42
72892;BME280;61032;50.782;6.818;2023-04-27T04:41:58;100883.41;;;6.98;61.28
72892;BME280;61032;50.782;6.818;2023-04-27T04:42:58;100882.88;;;6.96;61.84
72892;BME280;61032;50.782;6.818;2023-04-27T04:43:59;100876.31;;;6.97;61.40
72892;BME280;61032;50.782;6.818;2023-04-27T04:44:59;100886.38;;;7.01;61.19
72892;BME280;61032;50.782;6.818;2023-04-27T04:46:00;100887.75;;;6.99;61.38
72892;BME280;61032;50.782;6.818;2023-04-27T04:47:00;100887.84;;;6.94;61.12
72892;BME280;61032;50.782;6.818;2023-04-27T04:48:01;100888.41;;;6.90;61.29
72892;BME280;61032;50.782;6.818;2023-04-27T04:49:01;100881.91;;;6.86;61.81
72892;BME280;61032;50.782;6.818;2023-04-27T04:50:02;100888.19;;;6.87;62.14
72892;BME280;61032;50.782;6.818;2023-04-27T04:51:06;100890.63;;;6.88;62.12
72892;BME280;61032;50.782;6.818;2023-04-27T04:52:06;100889.00;;;6.87;61.60
72892;BME280;61032;50.782;6.818;2023-04-27T04:53:07;100887.03;;;6.93;62.04
72892;BME280;61032;50.782;6.818;2023-04-27T04:54:07;100879.78;;;7.02;62.17
72892;BME280;61032;50.782;6.818;2023-04-27T04:55:08;100884.97;;;7.04;62.03
72892;BME280;61032;50.782;6.818;2023-04-27T04:56:10;100890.50;;;6.99;62.00
72892;BME280;61032;50.782;6.818;2023-04-27T04:57:10;100887.69;;;7.04;62.01
72892;BME280;61032;50.782;6.818;2023-04-27T04:58:10;100880.50;;;7.08;61.22
72892;BME280;61032;50.782;6.818;2023-04-27T04:59:11;100884.66;;;7.05;61.60
72892;BME280;61032;50.782;6.818;2023-04-27T05:00:11;100885.63;;;6.96;62.03
72892;BME280;61032;50.782;6.818;2023-04-27T05:01:12;100882.28;;;6.99;61.73
72892;BME280;61032;50.782;6.818;2023-04-27T05:02:13;100888.22;;;7.06;61.40
72892;BME280;61032;50.782;6.818;2023-04-27T05:03:13;100884.72;;;7.00;61.74
72892;BME280;61032;50.782;6.818;2023-04-27T05:04:13;100879.56;;;6.99;61.96
72892;BME280;61032;50.782;6.818;2023-04-27T05:05:14;100883.91;;;7.00;62.25
72892;BME280;61032;50.782;6.818;2023-04-27T05:06:14;100879.56;;;6.99;62.68
72892;BME280;61032;50.782;6.818;2023-04-27T05:07:14;100885.63;;;6.96;62.96
72892;BME280;61032;50.782;6.818;2023-04-27T05:08:16;100878.22;;;6.96;63.00
72892;BME280;61032;50.782;6.818;2023-04-27T05:09:16;100885.03;;;6.99;62.99
72892;BME280;61032;50.782;6.818;2023-04-27T05:10:17;100888.88;;;6.98;62.66
72892;BME280;61032;50.782;6.818;2023-04-27T05:11:17;100890.31;;;7.09;62.90
72892;BME280;61032;50.782;6.818;2023-04-27T05:12:17;100878.09;;;7.06;62.88
72892;BME280;61032;50.782;6.818;2023-04-27T05:13:18;100880.31;;;7.04;62.41
72892;BME280;61032;50.782;6.818;2023-04-27T05:14:19;100884.72;;;7.00;63.29
72892;BME280;61032;50.782;6.818;2023-04-27T05:15:19;100886.06;;;7.03;63.30
72892;BME280;61032;50.782;6.818;2023-04-27T05:16:20;100887.16;;;7.02;62.96
72892;BME280;61032;50.782;6.818;2023-04-27T05:17:20;100892.75;;;7.10;62.55
72892;BME280;61032;50.782;6.818;2023-04-27T05:18:20;100886.94;;;7.17;62.38
72892;BME280;61032;50.782;6.818;2023-04-27T05:19:21;100882.59;;;7.30;61.57
72892;BME280;61032;50.782;6.818;2023-04-27T05:20:21;100893.84;;;7.28;61.52
72892;BME280;61032;50.782;6.818;2023-04-27T05:21:21;100891.91;;;7.29;61.08
72892;BME280;61032;50.782;6.818;2023-04-27T05:22:22;100899.53;;;7.32;61.33